Estació municipal de Cànoves i Samalús (Vallès Oriental, P.N.del Montseny)

Consulta les dades en temps real de l'estació municipal de Cànoves i Samalús





Hora UTC 21:35
Temperatura 11.1 ºC
Humitat 92.4 %
Pressió 1010.7 hPa
Pluja 9.6 mm
Velocitat vent 4.2 km/h
Direcció vent NW
Radiació solar 0.1 W/m²

Webcam

Dades diàries 2026-05-05



Hora UTC (hivern +1h; estiu +2h)
Temperatura (ºC) Humitat (%) Pressió (hPa) Velocitat vent (km/h) Precipitació (mm) Radiació solar (W/m²)
Hora UTC Aire Humitat Pressió Vel. Dir. Vel. Max Dir. Intent. màx 5 min. Rad. Sol.
00:05 10.0 96.0 1010.5 1.9 WNW 1.9 NW 0.0 0.1
00:10 10.0 96.0 1010.5 1.1 NNW 2.8 NW 0.0 0.1
00:15 10.0 96.1 1010.5 1.4 NNW 4.2 NNW 0.0 0.1
00:20 9.8 96.0 1010.5 0.7 NW 3.2 NW 0.0 0.1
00:25 9.7 95.9 1010.5 1.4 S 4.2 SSE 0.0 0.1
00:30 9.5 95.8 1010.5 1.6 S 3.9 S 0.0 0.1
00:35 9.5 96.2 1010.6 0.6 NNW 2.8 NW 0.0 0.1
00:40 9.5 96.2 1010.6 2.1 NW 4.6 WNW 0.0 0.1
00:45 9.6 96.6 1010.6 1.2 WNW 3.9 WNW 0.0 0.1
00:50 9.7 96.7 1010.6 3.2 NNW 5.6 N 0.0 0.1
00:55 9.8 96.7 1010.5 5.4 NW 8.5 NNW 0.0 0.1
01:00 9.9 96.8 1010.6 3.8 NW 6.4 WSW 0.0 0.1
01:05 9.9 96.8 1010.6 4.2 NNW 7.8 N 0.0 0.1
01:10 9.8 96.4 1010.5 3.6 NNW 8.5 NNW 0.0 0.1
01:15 9.6 96.3 1010.4 2.2 NW 3.5 WNW 0.0 0.1
01:20 9.5 96.5 1010.4 2.7 NNW 4.6 N 0.0 0.1
01:25 9.4 96.5 1010.4 2.4 NW 4.2 NW 0.0 0.1
01:30 9.5 96.9 1010.4 2.3 NNW 4.2 NW 0.0 0.1
01:35 9.5 96.9 1010.3 2.8 NW 6.0 N 0.1 0.1
01:40 9.6 97.0 1010.4 4.8 NW 7.1 NNW 0.0 0.1
01:45 9.5 96.9 1010.4 2.4 NW 6.7 WNW 0.0 0.1
01:50 9.5 96.9 1010.3 2.0 NW 4.2 NNW 0.0 0.1
01:55 9.4 96.9 1010.4 2.2 N 4.6 N 0.0 0.1
02:00 9.1 96.5 1010.3 0.0 W 1.4 W 0.0 0.1
02:05 9.1 97.1 1010.3 3.1 NNW 6.0 NNW 0.0 0.1
02:10 9.3 97.2 1010.4 2.7 NNW 5.3 NNW 0.0 0.1
02:15 9.2 96.8 1010.4 2.3 NNW 4.2 N 0.0 0.1
02:20 9.1 96.9 1010.4 0.6 NNW 2.5 NNW 0.0 0.1
02:25 9.0 97.0 1010.4 1.9 NNW 3.9 N 0.0 0.1
02:30 8.9 97.1 1010.4 3.7 NW 6.4 NNW 0.0 0.1
02:35 9.1 97.4 1010.4 2.0 NNW 5.3 NNW 0.0 0.1
02:40 8.9 96.9 1010.4 0.9 N 4.2 NNW 0.0 0.1
02:45 8.7 96.8 1010.5 3.8 NNW 5.6 NNW 0.0 0.1
02:50 8.7 97.2 1010.4 0.6 NW 2.8 NW 0.0 0.1
02:55 8.7 97.3 1010.5 1.7 N 4.2 N 0.0 0.1
03:00 8.6 97.2 1010.5 1.1 NNW 3.2 NNW 0.0 0.1
03:05 8.3 96.9 1010.5 0.4 WNW 3.2 WNW 0.0 0.1
03:10 8.6 97.7 1010.6 4.4 NNW 6.4 NNW 0.0 0.1
03:15 8.8 97.6 1010.5 3.8 NNW 6.4 NNW 0.0 0.1
03:20 8.6 97.3 1010.5 3.2 NNW 4.6 NNW 0.0 0.1
03:25 8.7 97.6 1010.5 5.6 NNW 7.8 NNW 0.0 0.1
03:30 8.8 97.6 1010.5 4.5 N 8.5 N 0.0 0.1
03:35 8.8 97.6 1010.4 4.7 NNW 6.7 NNW 0.0 0.1
03:40 8.8 97.6 1010.4 6.3 NNW 7.8 NNW 0.0 0.1
03:45 8.8 97.6 1010.4 4.4 NNW 6.0 NNW 0.0 0.1
03:50 8.7 97.4 1010.3 1.7 NNW 4.6 NNW 0.0 0.1
03:55 8.6 97.5 1010.4 3.5 NNW 4.6 NNW 0.0 0.1
04:00 8.5 97.3 1010.5 3.4 NNW 4.2 NNW 0.0 0.1
04:05 8.4 97.4 1010.4 3.2 N 4.6 N 0.0 0.1
04:10 8.3 97.5 1010.4 4.3 NNW 7.1 NNW 0.0 0.1
04:15 8.3 97.5 1010.5 2.5 NNW 4.9 NNW 0.0 0.1
04:20 8.2 97.7 1010.5 4.1 NNW 5.3 NW 0.0 0.2
04:25 8.4 97.9 1010.5 4.2 NNW 5.6 NNW 0.0 0.6
04:30 8.3 97.7 1010.5 3.1 NNW 6.4 NNW 0.0 1.4
04:35 8.3 97.9 1010.5 3.8 NNW 5.3 NNW 0.0 2.6
04:40 8.4 98.0 1010.5 4.5 NNW 6.7 NNW 0.0 4.3
04:45 8.5 98.1 1010.5 3.4 NNW 4.6 NNW 0.0 6.3
04:50 8.4 97.8 1010.4 4.0 NNW 6.4 NNW 0.0 8.4
04:55 8.5 98.2 1010.4 4.0 NNW 5.6 NNW 0.0 10.6
05:00 8.6 98.2 1010.4 3.4 NNW 4.9 N 0.0 13.0
05:05 8.8 98.3 1010.5 3.8 N 7.1 N 0.0 15.2
05:10 8.9 98.3 1010.5 5.6 N 8.5 NW 0.0 17.7
05:15 9.1 98.3 1010.5 5.9 N 8.8 N 0.1 22.1
05:20 9.2 98.3 1010.5 5.6 N 9.5 NNW 0.0 22.8
05:25 9.3 98.1 1010.5 5.6 N 9.2 NNW 0.0 50.3
05:30 9.4 98.2 1010.5 4.8 N 7.1 NNW 0.0 102.4
05:35 9.6 98.4 1010.4 4.7 N 8.1 NNE 0.0 115.3
05:40 9.9 98.3 1010.5 4.2 N 7.1 N 0.0 128.9
05:45 10.0 98.2 1010.4 3.5 N 8.5 NW 0.0 141.1
05:50 10.2 97.9 1010.4 3.7 N 7.1 NNE 0.0 154.7
05:55 10.2 97.5 1010.5 2.7 N 5.3 NNE 0.0 168.9
06:00 10.3 97.3 1010.5 1.2 NNW 3.2 N 0.0 183.8
06:05 10.7 97.8 1010.6 2.8 N 4.6 N 0.0 197.7
06:10 11.1 97.7 1010.6 1.0 ENE 3.2 N 0.0 212.5
06:15 11.4 97.6 1010.6 1.1 NNE 2.8 N 0.0 227.7
06:20 11.6 97.3 1010.6 1.0 NNE 2.8 NNE 0.0 243.1
06:25 11.9 97.2 1010.7 2.3 N 4.2 NNE 0.0 258.8
06:30 12.2 96.9 1010.6 1.1 N 3.9 N 0.0 274.3
06:35 12.4 96.4 1010.6 1.8 N 4.2 NNW 0.0 262.1
06:40 12.6 96.0 1010.6 0.8 NNW 3.9 NNW 0.0 54.1
06:45 12.8 95.0 1010.6 1.0 N 3.5 NNW 0.0 55.2
06:50 13.2 94.3 1010.5 0.3 ESE 3.2 ESE 0.0 238.3
06:55 13.5 93.1 1010.5 1.5 E 3.2 SE 0.0 351.9
07:00 13.8 92.4 1010.5 1.3 ESE 3.2 SE 0.0 371.0
07:05 13.8 91.5 1010.5 4.9 SE 8.8 SE 0.0 399.2
07:10 14.0 91.4 1010.5 6.2 ESE 10.9 ESE 0.0 446.6
07:15 14.2 91.1 1010.6 7.4 SE 12.4 SE 0.0 312.7
07:20 13.9 90.3 1010.6 6.8 ESE 14.5 SE 0.0 351.7
07:25 14.1 91.0 1010.7 5.1 ESE 9.5 ESE 0.0 453.6
07:30 14.3 90.5 1010.7 4.9 ESE 13.1 E 0.0 474.4
07:35 14.1 88.7 1010.8 7.1 ESE 13.1 E 0.0 472.6
07:40 14.3 88.9 1010.9 3.9 SE 8.8 ESE 0.0 483.4
07:45 14.6 88.0 1010.9 4.0 ENE 8.1 NE 0.0 497.4
07:50 14.9 86.9 1010.8 2.6 E 7.8 ESE 0.0 511.3
07:55 15.2 85.0 1010.7 4.7 ENE 8.8 E 0.0 525.3
08:00 15.5 83.5 1010.7 5.4 ENE 9.5 NE 0.0 539.8
08:05 15.8 82.4 1010.6 5.3 ESE 9.5 E 0.0 553.5
08:10 16.1 81.3 1010.5 5.5 E 11.3 ENE 0.0 568.1
08:15 16.4 80.2 1010.5 5.0 E 13.8 E 0.0 580.9
08:20 16.5 77.1 1010.4 6.8 E 14.8 E 0.0 595.3
08:25 16.5 77.2 1010.4 7.2 ENE 14.1 ENE 0.0 613.7
08:30 16.8 78.7 1010.3 5.0 E 13.8 E 0.0 647.0
08:35 17.3 77.2 1010.4 7.0 E 16.9 E 0.0 723.2
08:40 17.1 75.0 1010.4 6.5 ENE 12.4 ENE 0.0 565.4
08:45 16.8 75.3 1010.4 6.4 E 11.6 E 0.0 190.6
08:50 16.4 76.5 1010.5 5.0 ESE 11.3 SE 0.0 135.2
08:55 16.1 78.4 1010.6 7.0 SE 12.0 ESE 0.0 98.7
09:00 15.8 79.1 1010.8 4.6 SSE 6.7 S 0.0 94.1
09:05 15.7 79.9 1011.0 5.0 SSE 8.1 SSE 0.0 89.4
09:10 15.6 80.7 1011.2 5.4 SSE 8.8 S 0.0 85.0
09:15 15.5 81.8 1011.3 5.5 SSE 9.5 S 0.0 81.6
09:20 15.3 82.5 1011.3 3.0 S 7.1 SSE 0.0 84.1
09:25 15.2 83.3 1010.9 2.5 NW 5.6 NNW 0.0 156.3
09:30 15.5 85.5 1010.8 1.0 NNE 3.5 NE 0.1 228.2
09:35 15.5 86.3 1010.4 4.3 NE 9.2 NE 0.0 185.3
09:40 15.5 87.2 1010.4 2.2 NNW 5.3 N 0.0 198.4
09:45 15.5 86.4 1010.3 3.6 NNE 7.4 NNE 0.0 270.6
09:50 15.6 86.2 1010.3 3.8 ENE 10.2 SE 0.0 470.5
09:55 15.9 85.9 1010.4 7.1 E 12.7 E 0.0 476.3
10:00 16.4 86.1 1010.5 6.9 E 13.1 E 0.0 789.5
10:05 16.8 84.0 1010.5 6.7 ESE 11.3 SE 0.0 821.0
10:10 17.0 80.9 1010.5 8.2 ESE 14.5 E 0.0 456.2
10:15 16.9 78.7 1010.5 5.8 ESE 11.6 E 0.0 511.8
10:20 16.8 78.3 1010.5 8.3 SE 12.0 SE 0.0 267.4
10:25 16.5 79.1 1010.7 10.5 SE 15.9 ESE 0.0 202.1
10:30 16.3 80.7 1010.9 8.0 SSE 13.4 S 0.0 153.6
10:35 16.1 81.0 1011.0 7.6 SSE 13.8 S 0.0 94.8
10:40 16.0 82.1 1011.1 4.9 SE 8.5 S 0.0 94.5
10:45 16.0 83.6 1011.1 4.4 SE 7.4 ESE 0.0 127.3
10:50 15.9 84.2 1011.0 3.7 SE 7.4 ESE 0.1 179.1
10:55 15.9 84.3 1011.0 2.4 SE 6.4 SE 0.0 222.2
11:00 15.9 84.3 1010.9 1.1 E 4.6 ESE 0.0 315.8
11:05 16.2 84.2 1010.8 3.0 E 5.3 ESE 0.0 322.7
11:10 16.3 83.3 1010.8 1.3 E 5.6 SE 0.0 252.0
11:15 16.4 83.3 1010.8 4.3 SSE 6.7 ESE 0.0 243.5
11:20 16.3 84.8 1010.7 5.0 SSE 8.1 SE 0.0 225.0
11:25 16.3 86.4 1010.7 6.5 SSE 10.2 SE 0.0 225.5
11:30 16.2 87.0 1010.6 6.6 SE 9.9 SSE 0.0 452.1
11:35 16.2 86.2 1010.6 5.8 SSE 10.6 SE 0.0 407.7
11:40 16.3 86.0 1010.5 4.1 S 9.5 S 0.0 1049.0
11:45 16.8 84.3 1010.4 5.6 SE 9.9 SE 0.0 945.0
11:50 16.9 82.1 1010.3 4.5 SSE 10.6 SSE 0.0 1000.0
11:55 17.5 81.7 1010.3 3.6 NE 8.8 ESE 0.0 915.0
12:00 17.6 79.3 1010.3 4.1 S 9.5 SSE 0.0 490.0
12:05 17.6 78.7 1010.3 2.1 NNW 4.9 WNW 0.0 726.8
12:10 18.3 78.0 1010.2 3.2 W 9.5 SSE 0.0 784.3
12:15 18.7 75.8 1010.1 8.8 SE 12.0 SSE 0.0 1060.0
12:20 19.2 74.4 1010.1 4.1 SE 10.9 E 0.0 887.0
12:25 19.4 69.7 1010.0 6.6 E 13.4 E 0.0 694.0
12:30 19.0 71.4 1010.0 6.4 SE 11.6 SE 0.0 335.3
12:35 18.7 72.1 1009.9 6.3 E 12.7 E 0.0 394.6
12:40 18.7 72.1 1009.8 10.2 SE 18.4 SE 0.0 481.9
12:45 18.5 73.7 1009.8 11.2 SE 18.7 SE 0.0 496.0
12:50 18.8 74.1 1009.8 9.6 SSE 18.0 SSE 0.0 1047.0
12:55 19.0 74.0 1009.7 12.5 SSE 22.9 S 0.0 693.6
13:00 18.6 73.1 1009.7 11.3 SSE 23.3 SE 0.0 606.0
13:05 18.6 70.9 1009.7 9.9 SSE 18.7 SSE 0.0 424.5
13:10 18.3 69.9 1009.8 9.1 SSE 17.3 SSE 0.0 910.0
13:15 18.7 67.6 1009.7 8.8 SSE 16.2 SE 0.0 858.0
13:20 18.7 66.4 1009.7 9.0 SSE 16.6 SE 0.0 843.0
13:25 18.9 65.5 1009.6 7.6 SE 15.2 SE 0.0 866.0
13:30 19.2 63.2 1009.6 7.8 SE 17.6 SE 0.0 716.0
13:35 19.1 63.8 1009.6 7.1 SE 15.2 SE 0.0 769.9
13:40 19.5 61.5 1009.5 5.7 E 12.0 E 0.0 715.6
13:45 19.5 60.5 1009.4 7.8 SE 15.5 ESE 0.0 756.9
13:50 19.4 60.4 1009.3 7.8 S 14.8 S 0.0 661.7
13:55 19.5 60.6 1009.2 9.0 SSE 19.8 SE 0.0 667.6
14:00 19.6 64.6 1009.2 11.1 SE 24.0 SSE 0.0 853.0
14:05 19.2 66.8 1009.2 11.6 SSE 21.5 SE 0.0 616.8
14:10 19.1 69.7 1009.1 11.4 SSE 18.7 SSE 0.0 651.9
14:15 18.7 70.3 1009.1 12.7 SE 21.2 SE 0.0 409.3
14:20 18.1 70.4 1009.1 11.0 SSE 24.7 SSE 0.0 394.3
14:25 17.8 70.3 1009.0 12.8 SSE 19.1 S 0.0 343.6
14:30 17.6 70.3 1009.0 12.1 SE 19.8 ESE 0.0 595.0
14:35 17.7 69.0 1009.0 11.6 SSE 19.4 SSE 0.0 647.0
14:40 17.7 66.8 1009.0 8.3 SSE 18.7 SSW 0.0 657.5
14:45 18.0 66.0 1009.0 9.5 SSE 18.7 SE 0.0 648.5
14:50 18.3 65.6 1009.0 7.0 SE 13.8 ESE 0.0 641.6
14:55 18.5 64.6 1008.9 9.3 SE 14.8 ESE 0.0 636.4
15:00 18.4 64.1 1008.9 9.0 SSE 14.5 SE 0.0 287.8
15:05 18.0 66.2 1009.0 6.7 S 15.2 SE 0.0 287.9
15:10 17.8 66.0 1009.0 8.1 SSE 17.3 SE 0.0 196.0
15:15 17.5 66.8 1009.0 9.0 SSE 18.4 SE 0.0 168.0
15:20 17.3 67.2 1009.1 7.4 SE 13.8 SE 0.0 179.3
15:25 17.1 67.9 1009.1 8.6 SSE 15.2 S 0.0 161.9
15:30 16.9 68.6 1009.0 8.7 SSE 14.5 SE 0.0 173.4
15:35 16.7 69.1 1009.0 8.9 SSE 16.2 SE 0.0 124.3
15:40 16.5 69.3 1009.0 9.4 SE 15.9 SSE 0.0 117.9
15:45 16.4 70.0 1009.1 7.6 SSE 12.4 SSE 0.0 116.1
15:50 16.4 69.9 1009.2 6.5 S 13.1 SSW 0.0 106.9
15:55 16.3 70.3 1009.3 6.2 S 11.3 SSW 0.0 98.7
16:00 16.3 70.9 1009.2 5.4 S 10.6 S 0.0 92.6
16:05 16.3 71.4 1009.3 7.0 SSW 12.4 SSW 0.0 79.8
16:10 16.1 71.9 1009.4 7.9 S 16.2 S 0.0 62.2
16:15 15.9 72.0 1009.5 7.2 SSW 13.8 SSW 0.0 27.2
16:20 15.9 73.4 1009.5 4.5 SSE 8.1 SE 0.0 18.0
16:25 15.8 74.5 1009.5 4.6 SE 7.4 SSE 0.0 16.8
16:30 15.7 76.1 1009.4 3.1 S 7.1 S 0.0 19.5
16:35 15.6 76.3 1009.7 6.1 SW 11.6 WSW 0.0 7.4
16:40 15.3 76.4 1010.0 7.5 SW 13.8 SSW 3.1 5.6
16:45 13.6 74.2 1009.9 6.3 SSW 13.1 SW 4.0 11.2
16:50 12.6 79.4 1010.1 7.8 WNW 14.1 WNW 1.2 19.3
16:55 12.2 84.3 1010.0 4.5 WNW 9.2 NW 0.5 29.3
17:00 12.2 87.2 1010.0 5.4 NW 10.9 NW 0.0 23.0
17:05 12.1 88.7 1009.9 5.7 NW 9.5 NW 0.1 16.3
17:10 12.2 90.1 1009.7 4.2 N 8.8 NNE 0.1 16.1
17:15 12.2 90.1 1009.6 0.7 W 3.2 NNW 0.0 31.0
17:20 12.1 90.2 1009.6 3.8 NW 12.7 NNW 0.0 54.7
17:25 12.0 90.3 1009.6 5.0 NW 14.1 NNE 0.0 51.1
17:30 11.9 90.4 1009.7 4.2 W 8.8 NW 0.0 39.8
17:35 11.9 90.8 1009.6 3.2 WNW 5.6 NW 0.0 29.6
17:40 12.0 90.8 1009.6 4.9 NW 7.4 NW 0.0 21.4
17:45 12.0 90.8 1009.5 7.5 NW 11.3 NNW 0.0 13.1
17:50 12.1 91.2 1009.4 5.2 NNW 11.3 NNW 0.1 9.6
17:55 12.2 91.4 1009.2 2.7 N 6.4 WNW 0.0 10.9
18:00 12.0 91.2 1009.2 5.9 NW 10.9 WNW 0.0 11.9
18:05 12.0 91.9 1009.1 1.6 NNW 5.6 NNW 0.0 10.7
18:10 12.0 91.6 1009.1 5.6 NW 9.5 NW 0.0 8.5
18:15 11.8 91.6 1009.1 5.4 NW 8.5 NNW 0.0 6.4
18:20 11.7 91.7 1009.1 5.3 NW 8.5 NW 0.0 4.3
18:25 11.7 91.9 1009.2 6.0 NW 9.9 NW 0.1 3.1
18:30 11.6 92.0 1009.2 5.7 NW 8.5 NW 0.0 2.6
18:35 11.6 92.1 1009.2 7.1 NW 10.2 NW 0.0 2.3
18:40 11.5 91.9 1009.1 7.5 NW 12.0 NNW 0.0 1.9
18:45 11.4 91.5 1009.1 7.5 NW 13.8 NW 0.0 1.4
18:50 11.5 91.1 1009.2 7.7 NW 16.2 NW 0.0 1.0
18:55 11.6 89.6 1009.3 10.4 NW 16.6 NW 0.0 0.7
19:00 11.9 87.4 1009.3 8.7 NW 19.8 NW 0.0 0.5
19:05 12.0 84.9 1009.4 12.5 NW 20.8 WNW 0.0 0.2
19:10 12.2 82.2 1009.5 13.7 NW 25.1 NW 0.0 0.1
19:15 12.6 80.5 1009.4 14.4 NW 30.3 NW 0.0 0.1
19:20 12.6 80.3 1009.3 9.4 NNW 23.6 NNW 0.0 0.1
19:25 12.3 81.1 1009.1 7.0 NNW 19.4 NW 0.0 0.1
19:30 12.3 82.7 1009.1 5.3 NW 11.3 NNW 0.0 0.1
19:35 12.0 83.6 1009.0 6.2 NNW 13.1 NNW 0.0 0.1
19:40 11.9 84.9 1009.0 8.1 NNW 15.5 NNW 0.0 0.1
19:45 11.6 85.0 1009.1 6.6 NNW 11.3 NNW 0.0 0.1
19:50 11.5 85.8 1009.1 8.4 NNW 14.8 NW 0.0 0.1
19:55 11.4 86.2 1009.2 5.6 NW 9.9 NW 0.0 0.1
20:00 11.1 86.6 1009.2 4.8 NW 6.4 NW 0.0 0.1
20:05 10.9 87.5 1009.4 4.0 NW 6.7 NW 0.0 0.1
20:10 10.7 88.0 1009.5 3.5 SSE 6.7 SSE 0.0 0.1
20:15 10.6 88.6 1009.6 1.3 WSW 3.9 S 0.0 0.1
20:20 10.5 89.7 1009.7 3.7 NW 6.0 NW 0.0 0.1
20:25 10.4 90.0 1009.9 1.7 WNW 3.2 W 0.0 0.1
20:30 10.3 90.7 1010.0 2.4 NW 3.9 WNW 0.0 0.1
20:35 10.3 91.4 1010.1 3.5 NW 4.9 NNW 0.0 0.1
20:40 10.2 91.6 1010.1 3.1 NW 4.6 WNW 0.0 0.1
20:45 10.3 92.5 1010.3 3.5 NW 5.3 NNW 0.0 0.1
20:50 10.3 92.6 1010.4 3.2 NW 4.9 NNE 0.0 0.1
20:55 10.4 93.1 1010.4 3.3 NNW 8.5 NNW 0.0 0.1
21:00 10.7 93.7 1010.4 4.1 NNW 6.4 NNW 0.0 0.1
21:05 10.7 93.4 1010.5 5.1 NNW 8.5 NNW 0.0 0.1
21:10 10.8 93.6 1010.5 5.5 NNW 8.1 NNW 0.0 0.1
21:15 10.8 93.4 1010.5 5.2 NW 9.2 NW 0.0 0.1
21:20 10.8 92.9 1010.5 5.8 NW 9.5 NNW 0.0 0.1
21:25 10.8 92.6 1010.5 3.9 NW 5.6 NNW 0.0 0.1
21:30 11.0 92.4 1010.5 3.3 NW 5.3 NW 0.0 0.1
21:35 11.1 92.4 1010.7 4.2 NW 6.4 WNW 0.0 0.1
Màxima 19.6 98.4 1011.3 14.4 NW 30.3 NW 4.0 1060.0
Mínima 8.2 60.4 1008.9
Total 9.6